sensor_id;sensor_type;location;lat;lon;timestamp;temperature;humidity
22299;DHT22;11317;51.072;17.036;2022-12-18T00:03:14;-2.90;1.00
22299;DHT22;11317;51.072;17.036;2022-12-18T00:05:50;-3.00;1.00
22299;DHT22;11317;51.072;17.036;2022-12-18T00:08:17;-2.80;1.00
22299;DHT22;11317;51.072;17.036;2022-12-18T00:10:43;-3.00;1.00
22299;DHT22;11317;51.072;17.036;2022-12-18T00:15:38;-2.50;1.00
22299;DHT22;11317;51.072;17.036;2022-12-18T00:37:36;-3.00;1.00
22299;DHT22;11317;51.072;17.036;2022-12-18T00:40:02;-3.10;1.00
22299;DHT22;11317;51.072;17.036;2022-12-18T00:50:05;-3.00;1.00
22299;DHT22;11317;51.072;17.036;2022-12-18T01:24:12;-3.10;1.00
22299;DHT22;11317;51.072;17.036;2022-12-18T01:31:31;-2.90;1.00
22299;DHT22;11317;51.072;17.036;2022-12-18T01:36:29;-3.00;1.00
22299;DHT22;11317;51.072;17.036;2022-12-18T01:41:24;-3.00;1.00
22299;DHT22;11317;51.072;17.036;2022-12-18T01:44:00;-3.00;1.00
22299;DHT22;11317;51.072;17.036;2022-12-18T01:46:27;-3.00;1.00
22299;DHT22;11317;51.072;17.036;2022-12-18T01:48:59;-3.10;1.00
22299;DHT22;11317;51.072;17.036;2022-12-18T01:51:27;-3.10;1.00
22299;DHT22;11317;51.072;17.036;2022-12-18T01:53:55;-3.10;1.00
22299;DHT22;11317;51.072;17.036;2022-12-18T01:56:21;-2.30;1.00
22299;DHT22;11317;51.072;17.036;2022-12-18T01:58:56;-2.80;1.00
22299;DHT22;11317;51.072;17.036;2022-12-18T02:01:24;-2.90;1.00
22299;DHT22;11317;51.072;17.036;2022-12-18T02:03:51;-3.10;1.00
22299;DHT22;11317;51.072;17.036;2022-12-18T02:09:13;-3.00;1.00
22299;DHT22;11317;51.072;17.036;2022-12-18T02:12:12;-3.10;1.00
22299;DHT22;11317;51.072;17.036;2022-12-18T02:14:44;-3.00;1.00
22299;DHT22;11317;51.072;17.036;2022-12-18T02:17:23;-3.00;1.00
22299;DHT22;11317;51.072;17.036;2022-12-18T02:20:12;-3.10;1.00
22299;DHT22;11317;51.072;17.036;2022-12-18T02:27:58;-3.00;1.00
22299;DHT22;11317;51.072;17.036;2022-12-18T02:30:26;-3.00;1.00
22299;DHT22;11317;51.072;17.036;2022-12-18T02:32:53;-3.00;1.00
22299;DHT22;11317;51.072;17.036;2022-12-18T02:35:23;-2.90;1.00
22299;DHT22;11317;51.072;17.036;2022-12-18T02:37:50;-2.90;1.00
22299;DHT22;11317;51.072;17.036;2022-12-18T02:40:22;-2.90;1.00
22299;DHT22;11317;51.072;17.036;2022-12-18T02:47:44;-2.90;1.00
22299;DHT22;11317;51.072;17.036;2022-12-18T02:50:22;-3.00;1.00
22299;DHT22;11317;51.072;17.036;2022-12-18T03:01:03;-3.10;1.00
22299;DHT22;11317;51.072;17.036;2022-12-18T03:03:51;-3.00;1.00
22299;DHT22;11317;51.072;17.036;2022-12-18T03:06:27;-3.00;1.00
22299;DHT22;11317;51.072;17.036;2022-12-18T03:09:01;-3.00;1.00
22299;DHT22;11317;51.072;17.036;2022-12-18T03:11:29;-3.00;1.00
22299;DHT22;11317;51.072;17.036;2022-12-18T03:14:16;-3.00;1.00
22299;DHT22;11317;51.072;17.036;2022-12-18T03:16:44;-3.00;1.00
22299;DHT22;11317;51.072;17.036;2022-12-18T03:19:15;-3.00;1.00
22299;DHT22;11317;51.072;17.036;2022-12-18T03:21:49;-3.20;1.00
22299;DHT22;11317;51.072;17.036;2022-12-18T03:24:18;-3.80;1.00
22299;DHT22;11317;51.072;17.036;2022-12-18T03:26:47;-3.00;1.00
22299;DHT22;11317;51.072;17.036;2022-12-18T03:29:45;-2.90;1.00
22299;DHT22;11317;51.072;17.036;2022-12-18T03:32:16;-3.10;1.00
22299;DHT22;11317;51.072;17.036;2022-12-18T03:34:46;-3.00;1.00
22299;DHT22;11317;51.072;17.036;2022-12-18T03:37:14;-3.70;1.00
22299;DHT22;11317;51.072;17.036;2022-12-18T03:44:40;-3.00;1.00
22299;DHT22;11317;51.072;17.036;2022-12-18T03:47:14;-3.00;1.00
22299;DHT22;11317;51.072;17.036;2022-12-18T03:49:52;-3.00;1.00
22299;DHT22;11317;51.072;17.036;2022-12-18T03:52:36;-3.00;1.00
22299;DHT22;11317;51.072;17.036;2022-12-18T03:55:03;-2.90;1.00
22299;DHT22;11317;51.072;17.036;2022-12-18T03:57:31;-3.00;1.00
22299;DHT22;11317;51.072;17.036;2022-12-18T04:00:04;-3.10;1.00
22299;DHT22;11317;51.072;17.036;2022-12-18T04:02:31;-3.00;1.00
22299;DHT22;11317;51.072;17.036;2022-12-18T04:04:59;-3.00;1.00
22299;DHT22;11317;51.072;17.036;2022-12-18T04:07:26;-3.00;99.90
22299;DHT22;11317;51.072;17.036;2022-12-18T04:09:56;-3.10;1.00
22299;DHT22;11317;51.072;17.036;2022-12-18T04:12:24;-3.10;1.00
22299;DHT22;11317;51.072;17.036;2022-12-18T04:22:10;-3.10;1.00
22299;DHT22;11317;51.072;17.036;2022-12-18T04:27:03;-3.00;1.00
22299;DHT22;11317;51.072;17.036;2022-12-18T04:29:29;-3.40;1.00
22299;DHT22;11317;51.072;17.036;2022-12-18T04:44:06;-3.10;1.00
22299;DHT22;11317;51.072;17.036;2022-12-18T04:48:58;-3.10;1.00
22299;DHT22;11317;51.072;17.036;2022-12-18T04:53:50;-3.30;1.00
22299;DHT22;11317;51.072;17.036;2022-12-18T04:58:43;-3.20;1.00
22299;DHT22;11317;51.072;17.036;2022-12-18T05:01:11;-3.20;99.90
22299;DHT22;11317;51.072;17.036;2022-12-18T05:06:04;-3.30;94.90
22299;DHT22;11317;51.072;17.036;2022-12-18T05:11:00;-3.20;99.90
22299;DHT22;11317;51.072;17.036;2022-12-18T05:13:27;-3.70;99.90
22299;DHT22;11317;51.072;17.036;2022-12-18T05:15:54;-3.60;16.60
22299;DHT22;11317;51.072;17.036;2022-12-18T05:47:33;-3.10;99.90
22299;DHT22;11317;51.072;17.036;2022-12-18T06:07:04;-3.50;1.00
22299;DHT22;11317;51.072;17.036;2022-12-18T06:11:57;-3.20;99.90
22299;DHT22;11317;51.072;17.036;2022-12-18T06:16:50;-3.30;99.90
22299;DHT22;11317;51.072;17.036;2022-12-18T06:26:38;-3.60;99.90
22299;DHT22;11317;51.072;17.036;2022-12-18T06:29:04;-3.50;99.90
22299;DHT22;11317;51.072;17.036;2022-12-18T06:41:19;-3.60;1.00
22299;DHT22;11317;51.072;17.036;2022-12-18T06:46:12;-3.70;1.00
22299;DHT22;11317;51.072;17.036;2022-12-18T06:48:38;-3.60;99.90
22299;DHT22;11317;51.072;17.036;2022-12-18T06:51:04;-3.30;99.90
22299;DHT22;11317;51.072;17.036;2022-12-18T06:53:30;-3.50;1.00
22299;DHT22;11317;51.072;17.036;2022-12-18T06:56:04;-3.30;99.90
22299;DHT22;11317;51.072;17.036;2022-12-18T06:58:32;-3.70;82.30
22299;DHT22;11317;51.072;17.036;2022-12-18T07:01:05;-4.10;99.90
22299;DHT22;11317;51.072;17.036;2022-12-18T07:23:03;-3.50;99.90
22299;DHT22;11317;51.072;17.036;2022-12-18T07:45:02;-3.50;1.00
22299;DHT22;11317;51.072;17.036;2022-12-18T07:52:20;-3.40;1.00
22299;DHT22;11317;51.072;17.036;2022-12-18T08:24:02;-3.30;1.00
22299;DHT22;11317;51.072;17.036;2022-12-18T08:26:29;-3.20;99.90
22299;DHT22;11317;51.072;17.036;2022-12-18T08:28:56;-3.30;1.00
22299;DHT22;11317;51.072;17.036;2022-12-18T08:33:50;-3.20;1.00
22299;DHT22;11317;51.072;17.036;2022-12-18T08:38:47;-3.30;99.90
22299;DHT22;11317;51.072;17.036;2022-12-18T08:41:14;-3.50;1.00
22299;DHT22;11317;51.072;17.036;2022-12-18T08:43:41;-3.60;99.90
22299;DHT22;11317;51.072;17.036;2022-12-18T08:46:26;-3.50;99.90
22299;DHT22;11317;51.072;17.036;2022-12-18T08:48:53;-3.20;1.00
22299;DHT22;11317;51.072;17.036;2022-12-18T08:53:46;-3.20;99.90
22299;DHT22;11317;51.072;17.036;2022-12-18T08:56:13;-3.10;99.90
22299;DHT22;11317;51.072;17.036;2022-12-18T09:01:08;-3.00;1.00
22299;DHT22;11317;51.072;17.036;2022-12-18T09:03:38;-3.10;99.90
22299;DHT22;11317;51.072;17.036;2022-12-18T09:06:04;-2.80;1.00
22299;DHT22;11317;51.072;17.036;2022-12-18T09:10:56;-2.90;99.90
22299;DHT22;11317;51.072;17.036;2022-12-18T09:13:22;-3.10;1.00
22299;DHT22;11317;51.072;17.036;2022-12-18T09:15:50;-2.80;99.90
22299;DHT22;11317;51.072;17.036;2022-12-18T09:18:18;-2.70;1.00
22299;DHT22;11317;51.072;17.036;2022-12-18T09:20:44;-2.80;1.00
22299;DHT22;11317;51.072;17.036;2022-12-18T09:28:10;-3.00;1.00
22299;DHT22;11317;51.072;17.036;2022-12-18T09:30:38;-2.90;99.90
22299;DHT22;11317;51.072;17.036;2022-12-18T09:40:30;-3.10;1.00
22299;DHT22;11317;51.072;17.036;2022-12-18T09:43:00;-3.00;1.70
22299;DHT22;11317;51.072;17.036;2022-12-18T09:45:31;-2.80;99.90
22299;DHT22;11317;51.072;17.036;2022-12-18T09:50:31;-3.10;1.00
22299;DHT22;11317;51.072;17.036;2022-12-18T09:53:04;-3.10;99.90
22299;DHT22;11317;51.072;17.036;2022-12-18T09:55:42;-3.10;99.90
22299;DHT22;11317;51.072;17.036;2022-12-18T09:58:28;-4.00;99.90
22299;DHT22;11317;51.072;17.036;2022-12-18T10:13:52;-3.40;97.80
22299;DHT22;11317;51.072;17.036;2022-12-18T10:16:29;-3.60;1.00
22299;DHT22;11317;51.072;17.036;2022-12-18T10:19:33;-3.50;55.30
22299;DHT22;11317;51.072;17.036;2022-12-18T10:24:50;-3.50;1.00
22299;DHT22;11317;51.072;17.036;2022-12-18T10:27:22;-3.50;1.00
22299;DHT22;11317;51.072;17.036;2022-12-18T10:29:48;-2.30;1.00
22299;DHT22;11317;51.072;17.036;2022-12-18T10:32:21;-3.20;1.00
22299;DHT22;11317;51.072;17.036;2022-12-18T10:34:49;-3.20;1.00
22299;DHT22;11317;51.072;17.036;2022-12-18T10:37:19;-3.50;99.90
22299;DHT22;11317;51.072;17.036;2022-12-18T10:39:47;-3.30;99.90
22299;DHT22;11317;51.072;17.036;2022-12-18T10:42:30;-2.00;99.90
22299;DHT22;11317;51.072;17.036;2022-12-18T10:45:13;-3.20;99.90
22299;DHT22;11317;51.072;17.036;2022-12-18T10:47:43;-3.20;99.90
22299;DHT22;11317;51.072;17.036;2022-12-18T10:50:28;-3.20;1.00
22299;DHT22;11317;51.072;17.036;2022-12-18T10:52:59;-3.50;99.90
22299;DHT22;11317;51.072;17.036;2022-12-18T10:55:33;-1.40;99.90
22299;DHT22;11317;51.072;17.036;2022-12-18T10:58:31;-3.30;99.90
22299;DHT22;11317;51.072;17.036;2022-12-18T11:03:47;-3.20;1.00
22299;DHT22;11317;51.072;17.036;2022-12-18T11:06:24;-1.80;1.00
22299;DHT22;11317;51.072;17.036;2022-12-18T11:09:05;-3.10;99.90
22299;DHT22;11317;51.072;17.036;2022-12-18T11:11:32;-3.20;99.90
22299;DHT22;11317;51.072;17.036;2022-12-18T11:14:05;-3.30;1.00
22299;DHT22;11317;51.072;17.036;2022-12-18T11:16:36;-3.20;99.90
22299;DHT22;11317;51.072;17.036;2022-12-18T11:21:56;-3.70;99.90
22299;DHT22;11317;51.072;17.036;2022-12-18T11:24:29;-3.40;99.90
22299;DHT22;11317;51.072;17.036;2022-12-18T11:26:58;-3.40;99.90
22299;DHT22;11317;51.072;17.036;2022-12-18T11:34:44;-3.30;1.00
22299;DHT22;11317;51.072;17.036;2022-12-18T11:37:11;-3.20;1.00
22299;DHT22;11317;51.072;17.036;2022-12-18T11:40:03;-3.20;1.00
22299;DHT22;11317;51.072;17.036;2022-12-18T11:42:44;-2.90;1.00
22299;DHT22;11317;51.072;17.036;2022-12-18T11:47:50;-3.10;1.00
22299;DHT22;11317;51.072;17.036;2022-12-18T11:50:24;-3.20;99.90
22299;DHT22;11317;51.072;17.036;2022-12-18T11:52:50;-3.10;99.90
22299;DHT22;11317;51.072;17.036;2022-12-18T12:06:09;-3.20;99.90
22299;DHT22;11317;51.072;17.036;2022-12-18T12:09:04;-3.30;1.00
22299;DHT22;11317;51.072;17.036;2022-12-18T12:16:51;-3.20;97.70
22299;DHT22;11317;51.072;17.036;2022-12-18T12:20:45;-0.30;1.00
22299;DHT22;11317;51.072;17.036;2022-12-18T12:22:53;-2.80;1.00
22299;DHT22;11317;51.072;17.036;2022-12-18T12:30:24;-3.20;99.90
22299;DHT22;11317;51.072;17.036;2022-12-18T12:33:21;-3.80;99.90
22299;DHT22;11317;51.072;17.036;2022-12-18T12:39:06;-2.90;1.00
22299;DHT22;11317;51.072;17.036;2022-12-18T12:41:32;-2.80;1.00
22299;DHT22;11317;51.072;17.036;2022-12-18T12:44:24;-3.00;99.90
22299;DHT22;11317;51.072;17.036;2022-12-18T12:46:52;-3.00;1.00
22299;DHT22;11317;51.072;17.036;2022-12-18T12:49:21;-2.80;1.00
22299;DHT22;11317;51.072;17.036;2022-12-18T12:52:12;-3.10;1.00
22299;DHT22;11317;51.072;17.036;2022-12-18T12:54:39;-2.90;1.00
22299;DHT22;11317;51.072;17.036;2022-12-18T12:57:11;-2.80;1.00
22299;DHT22;11317;51.072;17.036;2022-12-18T12:59:59;-3.30;99.90
22299;DHT22;11317;51.072;17.036;2022-12-18T13:02:42;-3.10;99.90
22299;DHT22;11317;51.072;17.036;2022-12-18T13:08:04;-3.10;99.90
22299;DHT22;11317;51.072;17.036;2022-12-18T13:15:45;-3.30;99.90
22299;DHT22;11317;51.072;17.036;2022-12-18T13:18:20;-3.10;1.00
22299;DHT22;11317;51.072;17.036;2022-12-18T13:23:33;-3.50;99.90
22299;DHT22;11317;51.072;17.036;2022-12-18T13:34:26;-3.40;96.50
22299;DHT22;11317;51.072;17.036;2022-12-18T13:36:57;-3.40;95.20
22299;DHT22;11317;51.072;17.036;2022-12-18T13:44:39;-3.70;1.00
22299;DHT22;11317;51.072;17.036;2022-12-18T13:47:38;-3.60;1.00
22299;DHT22;11317;51.072;17.036;2022-12-18T13:50:24;-3.60;1.00
22299;DHT22;11317;51.072;17.036;2022-12-18T13:52:51;-3.70;99.90
22299;DHT22;11317;51.072;17.036;2022-12-18T13:55:19;-4.90;99.90
22299;DHT22;11317;51.072;17.036;2022-12-18T14:00:28;-3.80;99.90
22299;DHT22;11317;51.072;17.036;2022-12-18T14:02:55;-3.70;1.00
22299;DHT22;11317;51.072;17.036;2022-12-18T14:05:31;-3.90;1.00
22299;DHT22;11317;51.072;17.036;2022-12-18T14:08:11;-4.10;1.00
22299;DHT22;11317;51.072;17.036;2022-12-18T14:10:45;-4.00;1.00
22299;DHT22;11317;51.072;17.036;2022-12-18T14:13:19;-3.80;1.00
22299;DHT22;11317;51.072;17.036;2022-12-18T14:15:48;-4.00;1.00
22299;DHT22;11317;51.072;17.036;2022-12-18T14:18:23;-4.10;1.00
22299;DHT22;11317;51.072;17.036;2022-12-18T14:20:52;-3.90;1.00
22299;DHT22;11317;51.072;17.036;2022-12-18T14:23:34;-4.00;1.00
22299;DHT22;11317;51.072;17.036;2022-12-18T14:28:48;-3.90;1.00
22299;DHT22;11317;51.072;17.036;2022-12-18T14:31:21;-3.90;1.00
22299;DHT22;11317;51.072;17.036;2022-12-18T14:36:22;-4.10;1.00
22299;DHT22;11317;51.072;17.036;2022-12-18T14:38:54;-4.10;1.00
22299;DHT22;11317;51.072;17.036;2022-12-18T14:41:21;-4.50;1.00
22299;DHT22;11317;51.072;17.036;2022-12-18T14:43:51;-4.00;1.00
22299;DHT22;11317;51.072;17.036;2022-12-18T14:46:37;-4.20;1.00
22299;DHT22;11317;51.072;17.036;2022-12-18T14:49:26;-4.20;1.00
22299;DHT22;11317;51.072;17.036;2022-12-18T14:51:56;-4.70;1.00
22299;DHT22;11317;51.072;17.036;2022-12-18T14:54:23;-4.30;1.00
22299;DHT22;11317;51.072;17.036;2022-12-18T14:57:01;-4.30;1.00
22299;DHT22;11317;51.072;17.036;2022-12-18T14:59:28;-3.50;1.00
22299;DHT22;11317;51.072;17.036;2022-12-18T15:04:38;-4.40;1.00
22299;DHT22;11317;51.072;17.036;2022-12-18T15:07:20;-4.40;1.00
22299;DHT22;11317;51.072;17.036;2022-12-18T15:10:13;-4.40;1.00
22299;DHT22;11317;51.072;17.036;2022-12-18T15:12:46;-4.80;1.00
22299;DHT22;11317;51.072;17.036;2022-12-18T15:20:54;-4.60;1.00
22299;DHT22;11317;51.072;17.036;2022-12-18T15:26:09;-4.60;13.70
22299;DHT22;11317;51.072;17.036;2022-12-18T15:31:29;-4.70;1.00
22299;DHT22;11317;51.072;17.036;2022-12-18T15:36:26;-4.30;1.00
22299;DHT22;11317;51.072;17.036;2022-12-18T15:38:54;-4.90;19.90
22299;DHT22;11317;51.072;17.036;2022-12-18T15:41:21;-4.70;1.00
22299;DHT22;11317;51.072;17.036;2022-12-18T15:43:49;-4.70;1.00
22299;DHT22;11317;51.072;17.036;2022-12-18T15:46:18;-4.60;10.30
22299;DHT22;11317;51.072;17.036;2022-12-18T15:48:50;-4.70;1.00
22299;DHT22;11317;51.072;17.036;2022-12-18T15:51:31;-4.80;1.00
22299;DHT22;11317;51.072;17.036;2022-12-18T15:53:59;-4.80;1.00
22299;DHT22;11317;51.072;17.036;2022-12-18T15:59:11;-5.90;1.00
22299;DHT22;11317;51.072;17.036;2022-12-18T16:01:38;-4.40;25.40
22299;DHT22;11317;51.072;17.036;2022-12-18T16:04:04;-5.10;10.00
22299;DHT22;11317;51.072;17.036;2022-12-18T16:06:30;-5.00;26.90
22299;DHT22;11317;51.072;17.036;2022-12-18T16:16:48;-5.30;9.40
22299;DHT22;11317;51.072;17.036;2022-12-18T16:19:14;-4.80;32.00
22299;DHT22;11317;51.072;17.036;2022-12-18T16:24:20;-5.10;19.50
22299;DHT22;11317;51.072;17.036;2022-12-18T16:26:49;-5.30;34.10
22299;DHT22;11317;51.072;17.036;2022-12-18T16:29:17;-4.70;48.00
22299;DHT22;11317;51.072;17.036;2022-12-18T16:36:40;-5.50;49.10
22299;DHT22;11317;51.072;17.036;2022-12-18T16:43:59;-6.30;24.10
22299;DHT22;11317;51.072;17.036;2022-12-18T16:46:25;-5.50;24.20
22299;DHT22;11317;51.072;17.036;2022-12-18T17:01:10;-6.60;84.00
22299;DHT22;11317;51.072;17.036;2022-12-18T17:06:03;-6.60;99.90
22299;DHT22;11317;51.072;17.036;2022-12-18T17:13:25;-7.00;99.90
22299;DHT22;11317;51.072;17.036;2022-12-18T17:25:39;-6.80;99.90
22299;DHT22;11317;51.072;17.036;2022-12-18T17:30:31;-7.50;99.90
22299;DHT22;11317;51.072;17.036;2022-12-18T18:02:10;-7.00;99.90
22299;DHT22;11317;51.072;17.036;2022-12-18T18:09:32;-7.30;99.90
22299;DHT22;11317;51.072;17.036;2022-12-18T18:12:02;-7.30;99.90
22299;DHT22;11317;51.072;17.036;2022-12-18T18:14:48;-7.40;99.90
22299;DHT22;11317;51.072;17.036;2022-12-18T18:17:17;-7.30;99.90
22299;DHT22;11317;51.072;17.036;2022-12-18T18:19:45;-7.10;99.90
22299;DHT22;11317;51.072;17.036;2022-12-18T18:31:55;-7.70;99.90
22299;DHT22;11317;51.072;17.036;2022-12-18T18:34:23;-7.50;99.90
22299;DHT22;11317;51.072;17.036;2022-12-18T18:36:50;-8.00;99.90
22299;DHT22;11317;51.072;17.036;2022-12-18T18:39:16;-7.50;99.90
22299;DHT22;11317;51.072;17.036;2022-12-18T18:41:42;-7.50;99.90
22299;DHT22;11317;51.072;17.036;2022-12-18T18:44:08;-7.40;99.90
22299;DHT22;11317;51.072;17.036;2022-12-18T18:46:34;-6.90;99.90
22299;DHT22;11317;51.072;17.036;2022-12-18T18:49:00;-7.20;99.90
22299;DHT22;11317;51.072;17.036;2022-12-18T18:53:52;-8.30;99.90
22299;DHT22;11317;51.072;17.036;2022-12-18T18:56:23;-7.30;99.90
22299;DHT22;11317;51.072;17.036;2022-12-18T18:58:49;-7.90;99.90
22299;DHT22;11317;51.072;17.036;2022-12-18T19:01:18;-8.10;99.90
22299;DHT22;11317;51.072;17.036;2022-12-18T19:03:45;-7.60;99.90
22299;DHT22;11317;51.072;17.036;2022-12-18T19:06:23;-7.60;99.90
22299;DHT22;11317;51.072;17.036;2022-12-18T19:08:50;-8.10;99.90
22299;DHT22;11317;51.072;17.036;2022-12-18T19:11:16;-8.30;99.90
22299;DHT22;11317;51.072;17.036;2022-12-18T19:14:04;-6.50;99.90
22299;DHT22;11317;51.072;17.036;2022-12-18T19:16:30;-7.90;99.90
22299;DHT22;11317;51.072;17.036;2022-12-18T19:18:56;-8.00;99.90
22299;DHT22;11317;51.072;17.036;2022-12-18T19:23:49;-7.90;99.90
22299;DHT22;11317;51.072;17.036;2022-12-18T19:26:15;-7.80;99.90
22299;DHT22;11317;51.072;17.036;2022-12-18T19:31:09;-7.80;99.90
22299;DHT22;11317;51.072;17.036;2022-12-18T19:33:38;-7.80;99.90
22299;DHT22;11317;51.072;17.036;2022-12-18T19:38:39;-7.80;99.90
22299;DHT22;11317;51.072;17.036;2022-12-18T19:41:07;-8.00;99.90
22299;DHT22;11317;51.072;17.036;2022-12-18T19:43:35;-7.60;99.90
22299;DHT22;11317;51.072;17.036;2022-12-18T19:46:02;-7.90;99.90
22299;DHT22;11317;51.072;17.036;2022-12-18T19:48:29;-6.80;99.90
22299;DHT22;11317;51.072;17.036;2022-12-18T19:50:55;-7.30;99.90
22299;DHT22;11317;51.072;17.036;2022-12-18T20:03:05;-8.20;99.90
22299;DHT22;11317;51.072;17.036;2022-12-18T20:15:15;-8.80;99.90
22299;DHT22;11317;51.072;17.036;2022-12-18T20:25:00;-8.50;99.90
22299;DHT22;11317;51.072;17.036;2022-12-18T20:32:18;-8.90;99.90
22299;DHT22;11317;51.072;17.036;2022-12-18T20:37:12;-8.20;99.90
22299;DHT22;11317;51.072;17.036;2022-12-18T20:39:41;-8.20;99.90
22299;DHT22;11317;51.072;17.036;2022-12-18T20:42:11;-8.20;99.90
22299;DHT22;11317;51.072;17.036;2022-12-18T20:49:29;-7.90;99.90
22299;DHT22;11317;51.072;17.036;2022-12-18T20:51:56;-8.30;99.90
22299;DHT22;11317;51.072;17.036;2022-12-18T20:54:24;-8.40;99.90
22299;DHT22;11317;51.072;17.036;2022-12-18T20:59:17;-8.30;99.90
22299;DHT22;11317;51.072;17.036;2022-12-18T21:04:11;-8.60;99.90
22299;DHT22;11317;51.072;17.036;2022-12-18T21:06:38;-8.20;99.90
22299;DHT22;11317;51.072;17.036;2022-12-18T21:09:06;-8.40;99.90
22299;DHT22;11317;51.072;17.036;2022-12-18T21:11:34;-8.60;99.90
22299;DHT22;11317;51.072;17.036;2022-12-18T21:14:24;-8.30;99.90
22299;DHT22;11317;51.072;17.036;2022-12-18T21:16:50;-8.00;99.90
22299;DHT22;11317;51.072;17.036;2022-12-18T21:19:21;-8.30;99.90
22299;DHT22;11317;51.072;17.036;2022-12-18T21:21:48;-8.30;99.90
22299;DHT22;11317;51.072;17.036;2022-12-18T21:24:14;-8.30;99.90
22299;DHT22;11317;51.072;17.036;2022-12-18T21:26:44;-8.70;99.90
22299;DHT22;11317;51.072;17.036;2022-12-18T21:29:24;-8.30;99.90
22299;DHT22;11317;51.072;17.036;2022-12-18T21:31:51;-8.40;99.90
22299;DHT22;11317;51.072;17.036;2022-12-18T21:34:22;-8.40;99.90
22299;DHT22;11317;51.072;17.036;2022-12-18T21:39:16;-8.80;99.90
22299;DHT22;11317;51.072;17.036;2022-12-18T21:41:42;-8.40;99.90
22299;DHT22;11317;51.072;17.036;2022-12-18T21:44:27;-8.40;99.90
22299;DHT22;11317;51.072;17.036;2022-12-18T21:46:54;-8.50;99.90
22299;DHT22;11317;51.072;17.036;2022-12-18T21:51:47;-8.40;99.90
22299;DHT22;11317;51.072;17.036;2022-12-18T21:59:17;-8.20;99.90
22299;DHT22;11317;51.072;17.036;2022-12-18T22:09:02;-8.10;99.90
22299;DHT22;11317;51.072;17.036;2022-12-18T22:13:54;-8.30;99.90
22299;DHT22;11317;51.072;17.036;2022-12-18T22:18:46;-7.50;99.90
22299;DHT22;11317;51.072;17.036;2022-12-18T22:24:15;-8.10;99.90
22299;DHT22;11317;51.072;17.036;2022-12-18T22:26:41;-8.20;99.90
22299;DHT22;11317;51.072;17.036;2022-12-18T22:29:13;-8.20;99.90
22299;DHT22;11317;51.072;17.036;2022-12-18T22:31:58;-8.30;99.90
22299;DHT22;11317;51.072;17.036;2022-12-18T22:36:49;-8.10;99.90
22299;DHT22;11317;51.072;17.036;2022-12-18T22:39:24;-8.20;99.90
22299;DHT22;11317;51.072;17.036;2022-12-18T22:44:17;-8.40;99.90
22299;DHT22;11317;51.072;17.036;2022-12-18T22:46:46;-8.20;99.90
22299;DHT22;11317;51.072;17.036;2022-12-18T22:49:13;-8.20;99.90
22299;DHT22;11317;51.072;17.036;2022-12-18T22:58:58;-8.30;99.90
22299;DHT22;11317;51.072;17.036;2022-12-18T23:01:27;-8.30;99.90
22299;DHT22;11317;51.072;17.036;2022-12-18T23:03:54;-8.30;99.90
22299;DHT22;11317;51.072;17.036;2022-12-18T23:06:21;-8.30;99.90
22299;DHT22;11317;51.072;17.036;2022-12-18T23:11:15;-8.30;99.90
22299;DHT22;11317;51.072;17.036;2022-12-18T23:13:42;-8.30;99.90
22299;DHT22;11317;51.072;17.036;2022-12-18T23:16:13;-8.50;99.90
22299;DHT22;11317;51.072;17.036;2022-12-18T23:18:39;-8.40;99.90
22299;DHT22;11317;51.072;17.036;2022-12-18T23:21:14;-8.40;99.90
22299;DHT22;11317;51.072;17.036;2022-12-18T23:23:40;-7.50;99.90
22299;DHT22;11317;51.072;17.036;2022-12-18T23:26:25;-8.40;99.90
22299;DHT22;11317;51.072;17.036;2022-12-18T23:28:52;-8.70;99.90
22299;DHT22;11317;51.072;17.036;2022-12-18T23:31:24;-8.40;99.90
22299;DHT22;11317;51.072;17.036;2022-12-18T23:33:51;-8.40;99.90
22299;DHT22;11317;51.072;17.036;2022-12-18T23:36:18;-8.40;99.90
22299;DHT22;11317;51.072;17.036;2022-12-18T23:38:48;-8.30;99.90
22299;DHT22;11317;51.072;17.036;2022-12-18T23:41:15;-8.50;99.90
22299;DHT22;11317;51.072;17.036;2022-12-18T23:43:41;-8.50;99.90
22299;DHT22;11317;51.072;17.036;2022-12-18T23:46:12;-8.60;99.90
22299;DHT22;11317;51.072;17.036;2022-12-18T23:51:08;-8.90;99.90
22299;DHT22;11317;51.072;17.036;2022-12-18T23:53:34;-8.80;99.90
22299;DHT22;11317;51.072;17.036;2022-12-18T23:56:01;-8.60;99.90
22299;DHT22;11317;51.072;17.036;2022-12-18T23:58:30;-9.10;99.90
